Arrowsic, Maine
Current Conditions -  °F | °C
As of 4:29 AM on Thursday 27 Nov 2014 (Local Time) from KIWI Reporting Station
Light Snow Light Snow  
Wind Chill: -5°   Ceiling: 1100
Heat Index: -1°   Visibility: 1mi
Dew Point: -2°   Wind: 8mph
Humidity: 92%   Direction: 350°N
Pressure: 29.72"   Gusts: NA
Location:  43.8797°N, 69.8408°W
Report Text: KIWI 270929Z AUTO 35007KT 330V030 1SM -SN BR OVC011 M01/M02 A2972 RMK AO2 P0002 T10111022
Loading
Personal Weather Stations






























Interactive Weather Map New forecast layout! Learn more

10-Day Weather Forecast

Advertisements
Track Severe Weather on mobile